Hewitt, NJ (07421)

6:16 AM EDT on March 27, 2015 (GMT -0400)
Weather Station EW0157 | | Change Station
CLOSE
Current Station
Personal Weather Station
Location: West Milford, NJ
Elevation: 675 ft
Nearby Weather Stations

Elev 675 ft 41.15 °N, 74.35 °W | Updated 4 seconds ago

Rain
Rain
36.0 °F
Feels Like 36 °F
N
1.0
Wind Variable Wind from NW
Gusts 3.0 mph

Today
High -- | Low -- °F
--% Chance of Precip.
Yesterday
High -- | Low -- °F
Precip. -- in
6:49 AM 7:16 PM
Waxing Crescent, 51% visible
Pressure 29.79 in
Visibility 10.0 miles
Clouds Mostly Cloudy 1900 ft
Overcast 2300 ft
Windchill 36 °F
Dew Point 34 °F
Humidity 94%
Rainfall 0.14 in
Snow Depth Not available.
UV 0 out of 12
Pollen 4.10 out of 12
Air Quality Not available.
Flu Activity Not available.
METAR KFWN 270953Z AUTO 00000KT 10SM -RA BKN019 OVC023 03/00 A2978 RMK AO2 SLP087 P0003 T00280000

More Conditions Fewer Conditions

Pressure 29.79 in
Visibility 10.0 miles
Clouds Mostly Cloudy 1900 ft
Overcast 2300 ft
Windchill 36 °F
Dew Point 34 °F
Humidity 94%
Rainfall 0.14 in
Snow Depth Not available.
UV 0 out of 12
Pollen 4.10 out of 12
Air Quality Not available.
Flu Activity Not available.
METAR KFWN 270953Z AUTO 00000KT 10SM -RA BKN019 OVC023 03/00 A2978 RMK AO2 SLP087 P0003 T00280000

More Conditions Fewer Conditions

10-Day Weather Forecast

Almanac

Astronomy

Mar. 27, 2015 Rise Set
Actual Time
Civil Twilight
Nautical Twilight
Astronomical Twilight
Moon
Length of Visible Light
Length of Day
Tomorrow will be .
, % of the Moon is Illuminated

Today's Extremes

State Highs State Lows

Community

WunderPhotos

Upload Photos

1,808,705 photos uploaded!

WunderBlogs® & News

Nearby

Air Quality

  Air Quality AQ Index Pollutant
Not available.

Snow Depth

Station Depth Elevation

Earthquake Activity

City Distance Mag. Time & Date
Minimum magnitude displayed is 2.5.

Coastal Water Temperatures

Place Temperature

Stations

Nearby Weather Stations

Station Location Temp. Windchill Dew Point Humidity Wind Precip. Elev Updated Type